Terminal Aerodrome Forecast
Issued by NWS

Home | Current Version | Previous Version | Text Only | Print | Product List | Glossary On
Versions: 1 2 3 4 5 6 7 8 9 10 11 12 13 14 15 16
000
FTPA31 PHFO 250500
TAFOGG
TAF
PHOG 250537Z 2506/2606 05012KT P6SM SCT045
     FM250900 06007KT P6SM FEW040
     FM252000 06014G23KT P6SM FEW030 SCT060
     FM260500 07011KT P6SM FEW025 SCT045
      AMD LTD TO WX VIS AND WIND 2509/2516=

USA.gov is the U.S. government's official web portal to all federal, state and local government web resources and services.